Impacts TAF Board
For situational awareness. Not to be used for flight planning purposes.
IDs:

KDEN - Denver Intl, CO, US

Issued at 2339 UTC 23 May 2019
Updated at 0139 UTC 24 May 2019
Potential Impact None Slight Moderate High
Time0053Z 24/02Z 24/03Z 24/04Z 24/05Z 24/06Z 24/07Z 24/08Z 24/09Z 24/10Z 24/11Z 24/12Z 24/13Z 24/14Z>>
Type OBS PRVL PRVL PRVL PRVL PRVL PRVL PRVL PRVL PRVL PRVL PRVL PRVL PRVL
VIS 10 >6 >6 >6 >6 >6 >6 >6 >6 >6 >6 >6 >6 >6
CIG 25 35 80 80 80 80 -- -- -- -- -- -- -- --
Cover OVC OVC BKN BKN BKN BKN SCT SCT SCT SCT FEW FEW FEW FEW
FltCat MVFR VFR VFR VFR VFR VFR VFR VFR VFR VFR VFR VFR VFR VFR
WX -- -- -- -- -- -- -- -- -- -- -- -- -- --
WDir 140 130 150 150 150 150 180 180 180 180 200 200 200 200
WSpd 7 8 10 10 10 10 10 10 10 10 8 8 8 8
WGst -- -- -- -- -- -- -- -- -- -- -- -- -- --
Raw TAF
KDEN 232339Z 2400/2506 13008KT P6SM SCT025 OVC035
  TEMPO 2400/2402 5SM -SHRA BR BKN015 OVC025
  FM240300 15010KT P6SM SCT035 BKN080
  FM240700 18010KT P6SM FEW080 SCT200
  FM241100 20008KT P6SM FEW200
  FM241700 24012KT P6SM FEW200


Raw METAR
KDEN 240053Z 14007KT 10SM FEW018 OVC025 07/04 A2991 RMK AO2 SLP110 T00720039
KDEN 232353Z 16006KT 10SM FEW018 OVC029 07/03 A2992 RMK AO2 SLP114 T00720033 10078 20067 58017
KDEN 232253Z 14007KT 10SM FEW026 OVC039 07/04 A2993 RMK AO2 SLP117 T00720039

METAR Board
Radar Display
Forecast Discussion
For situational awareness. Not to be used for flight planning purposes.